sensor_id;sensor_type;location;lat;lon;timestamp;P1;durP1;ratioP1;P2;durP2;ratioP2
17790;SDS011;9019;48.132;-1.210;2022-07-06T00:02:25;6.37;;;2.30;;
17790;SDS011;9019;48.132;-1.210;2022-07-06T00:04:52;3.40;;;1.90;;
17790;SDS011;9019;48.132;-1.210;2022-07-06T00:07:20;4.80;;;2.30;;
17790;SDS011;9019;48.132;-1.210;2022-07-06T00:09:48;6.13;;;2.60;;
17790;SDS011;9019;48.132;-1.210;2022-07-06T00:12:15;6.70;;;2.37;;
17790;SDS011;9019;48.132;-1.210;2022-07-06T00:14:42;5.13;;;2.03;;
17790;SDS011;9019;48.132;-1.210;2022-07-06T00:17:09;3.30;;;2.30;;
17790;SDS011;9019;48.132;-1.210;2022-07-06T00:19:37;6.43;;;2.30;;
17790;SDS011;9019;48.132;-1.210;2022-07-06T00:22:04;6.90;;;2.90;;
17790;SDS011;9019;48.132;-1.210;2022-07-06T00:24:32;5.17;;;2.83;;
17790;SDS011;9019;48.132;-1.210;2022-07-06T00:26:59;6.07;;;2.40;;
17790;SDS011;9019;48.132;-1.210;2022-07-06T00:29:27;5.37;;;2.80;;
17790;SDS011;9019;48.132;-1.210;2022-07-06T00:31:55;5.10;;;2.50;;
17790;SDS011;9019;48.132;-1.210;2022-07-06T00:34:22;4.43;;;2.50;;
17790;SDS011;9019;48.132;-1.210;2022-07-06T00:36:49;4.50;;;2.30;;
17790;SDS011;9019;48.132;-1.210;2022-07-06T00:39:17;5.40;;;2.37;;
17790;SDS011;9019;48.132;-1.210;2022-07-06T00:41:48;6.53;;;2.70;;
17790;SDS011;9019;48.132;-1.210;2022-07-06T00:44:15;3.93;;;2.30;;
17790;SDS011;9019;48.132;-1.210;2022-07-06T00:46:42;3.07;;;2.13;;
17790;SDS011;9019;48.132;-1.210;2022-07-06T00:49:09;5.10;;;2.00;;
17790;SDS011;9019;48.132;-1.210;2022-07-06T00:51:57;3.50;;;2.33;;
17790;SDS011;9019;48.132;-1.210;2022-07-06T00:54:25;5.00;;;2.20;;
17790;SDS011;9019;48.132;-1.210;2022-07-06T00:56:53;5.40;;;2.23;;
17790;SDS011;9019;48.132;-1.210;2022-07-06T00:59:20;5.27;;;2.40;;
17790;SDS011;9019;48.132;-1.210;2022-07-06T01:01:48;3.57;;;2.30;;
17790;SDS011;9019;48.132;-1.210;2022-07-06T01:04:15;5.07;;;2.53;;
17790;SDS011;9019;48.132;-1.210;2022-07-06T01:06:42;3.07;;;2.30;;
17790;SDS011;9019;48.132;-1.210;2022-07-06T01:09:12;4.70;;;2.67;;
17790;SDS011;9019;48.132;-1.210;2022-07-06T01:11:39;5.37;;;2.17;;
17790;SDS011;9019;48.132;-1.210;2022-07-06T01:14:08;6.10;;;2.33;;
17790;SDS011;9019;48.132;-1.210;2022-07-06T01:16:35;4.53;;;1.97;;
17790;SDS011;9019;48.132;-1.210;2022-07-06T01:19:03;5.00;;;2.50;;
17790;SDS011;9019;48.132;-1.210;2022-07-06T01:21:32;4.00;;;2.80;;
17790;SDS011;9019;48.132;-1.210;2022-07-06T01:23:59;5.97;;;3.07;;
17790;SDS011;9019;48.132;-1.210;2022-07-06T01:26:27;8.00;;;3.13;;
17790;SDS011;9019;48.132;-1.210;2022-07-06T01:28:54;7.00;;;3.27;;
17790;SDS011;9019;48.132;-1.210;2022-07-06T01:31:22;7.83;;;3.43;;
17790;SDS011;9019;48.132;-1.210;2022-07-06T01:33:50;7.63;;;3.50;;
17790;SDS011;9019;48.132;-1.210;2022-07-06T01:36:18;5.57;;;3.23;;
17790;SDS011;9019;48.132;-1.210;2022-07-06T01:38:47;3.70;;;2.77;;
17790;SDS011;9019;48.132;-1.210;2022-07-06T01:41:15;5.73;;;2.60;;
17790;SDS011;9019;48.132;-1.210;2022-07-06T01:43:43;4.90;;;3.03;;
17790;SDS011;9019;48.132;-1.210;2022-07-06T01:46:10;7.03;;;3.20;;
17790;SDS011;9019;48.132;-1.210;2022-07-06T01:48:37;6.30;;;2.90;;
17790;SDS011;9019;48.132;-1.210;2022-07-06T01:51:05;4.33;;;3.13;;
17790;SDS011;9019;48.132;-1.210;2022-07-06T01:53:32;4.03;;;3.03;;
17790;SDS011;9019;48.132;-1.210;2022-07-06T01:56:00;6.13;;;3.47;;
17790;SDS011;9019;48.132;-1.210;2022-07-06T01:58:28;4.93;;;3.20;;
17790;SDS011;9019;48.132;-1.210;2022-07-06T02:00:55;5.90;;;3.30;;
17790;SDS011;9019;48.132;-1.210;2022-07-06T02:03:22;4.53;;;3.20;;
17790;SDS011;9019;48.132;-1.210;2022-07-06T02:05:49;7.97;;;3.30;;
17790;SDS011;9019;48.132;-1.210;2022-07-06T02:08:17;5.70;;;2.93;;
17790;SDS011;9019;48.132;-1.210;2022-07-06T02:10:44;5.27;;;2.80;;
17790;SDS011;9019;48.132;-1.210;2022-07-06T02:13:12;5.93;;;3.10;;
17790;SDS011;9019;48.132;-1.210;2022-07-06T02:15:40;3.80;;;2.80;;
17790;SDS011;9019;48.132;-1.210;2022-07-06T02:18:07;4.20;;;2.93;;
17790;SDS011;9019;48.132;-1.210;2022-07-06T02:20:34;4.03;;;2.67;;
17790;SDS011;9019;48.132;-1.210;2022-07-06T02:23:01;4.33;;;2.50;;
17790;SDS011;9019;48.132;-1.210;2022-07-06T02:25:29;5.27;;;2.80;;
17790;SDS011;9019;48.132;-1.210;2022-07-06T02:27:56;6.17;;;3.40;;
17790;SDS011;9019;48.132;-1.210;2022-07-06T02:30:25;3.87;;;3.20;;
17790;SDS011;9019;48.132;-1.210;2022-07-06T02:32:52;4.60;;;2.60;;
17790;SDS011;9019;48.132;-1.210;2022-07-06T02:35:19;5.17;;;3.27;;
17790;SDS011;9019;48.132;-1.210;2022-07-06T02:37:46;6.73;;;3.00;;
17790;SDS011;9019;48.132;-1.210;2022-07-06T02:40:14;3.47;;;2.57;;
17790;SDS011;9019;48.132;-1.210;2022-07-06T02:42:41;4.37;;;2.77;;
17790;SDS011;9019;48.132;-1.210;2022-07-06T02:45:09;6.23;;;2.93;;
17790;SDS011;9019;48.132;-1.210;2022-07-06T02:47:37;4.33;;;3.10;;
17790;SDS011;9019;48.132;-1.210;2022-07-06T02:50:05;4.53;;;3.27;;
17790;SDS011;9019;48.132;-1.210;2022-07-06T02:52:32;5.93;;;3.30;;
17790;SDS011;9019;48.132;-1.210;2022-07-06T02:55:00;6.20;;;3.30;;
17790;SDS011;9019;48.132;-1.210;2022-07-06T02:57:27;6.07;;;2.97;;
17790;SDS011;9019;48.132;-1.210;2022-07-06T02:59:54;5.93;;;3.37;;
17790;SDS011;9019;48.132;-1.210;2022-07-06T03:02:21;4.57;;;2.93;;
17790;SDS011;9019;48.132;-1.210;2022-07-06T03:04:51;5.57;;;3.33;;
17790;SDS011;9019;48.132;-1.210;2022-07-06T03:07:18;6.63;;;3.20;;
17790;SDS011;9019;48.132;-1.210;2022-07-06T03:09:45;5.60;;;3.13;;
17790;SDS011;9019;48.132;-1.210;2022-07-06T03:12:13;5.20;;;3.03;;
17790;SDS011;9019;48.132;-1.210;2022-07-06T03:14:41;6.50;;;3.43;;
17790;SDS011;9019;48.132;-1.210;2022-07-06T03:17:08;6.00;;;3.07;;
17790;SDS011;9019;48.132;-1.210;2022-07-06T03:19:35;7.77;;;3.13;;
17790;SDS011;9019;48.132;-1.210;2022-07-06T03:22:04;5.57;;;3.10;;
17790;SDS011;9019;48.132;-1.210;2022-07-06T03:24:31;4.30;;;2.73;;
17790;SDS011;9019;48.132;-1.210;2022-07-06T03:26:58;5.23;;;3.00;;
17790;SDS011;9019;48.132;-1.210;2022-07-06T03:29:26;5.57;;;2.83;;
17790;SDS011;9019;48.132;-1.210;2022-07-06T03:31:53;4.87;;;2.80;;
17790;SDS011;9019;48.132;-1.210;2022-07-06T03:34:20;5.00;;;2.90;;
17790;SDS011;9019;48.132;-1.210;2022-07-06T03:36:47;6.13;;;3.00;;
17790;SDS011;9019;48.132;-1.210;2022-07-06T03:39:16;4.37;;;2.80;;
17790;SDS011;9019;48.132;-1.210;2022-07-06T03:41:43;5.40;;;2.43;;
17790;SDS011;9019;48.132;-1.210;2022-07-06T03:44:10;4.77;;;2.47;;
17790;SDS011;9019;48.132;-1.210;2022-07-06T03:46:37;5.67;;;2.33;;
17790;SDS011;9019;48.132;-1.210;2022-07-06T03:49:04;4.67;;;2.60;;
17790;SDS011;9019;48.132;-1.210;2022-07-06T03:51:32;4.53;;;2.43;;
17790;SDS011;9019;48.132;-1.210;2022-07-06T03:53:59;3.77;;;2.33;;
17790;SDS011;9019;48.132;-1.210;2022-07-06T03:56:27;4.93;;;2.63;;
17790;SDS011;9019;48.132;-1.210;2022-07-06T03:58:55;4.00;;;2.60;;
17790;SDS011;9019;48.132;-1.210;2022-07-06T04:01:22;5.73;;;2.73;;
17790;SDS011;9019;48.132;-1.210;2022-07-06T04:03:50;2.87;;;2.47;;
17790;SDS011;9019;48.132;-1.210;2022-07-06T04:06:17;3.40;;;2.57;;
17790;SDS011;9019;48.132;-1.210;2022-07-06T04:08:44;4.80;;;2.60;;
17790;SDS011;9019;48.132;-1.210;2022-07-06T04:11:11;3.67;;;2.47;;
17790;SDS011;9019;48.132;-1.210;2022-07-06T04:13:40;3.83;;;2.70;;
17790;SDS011;9019;48.132;-1.210;2022-07-06T04:16:07;5.80;;;2.80;;
17790;SDS011;9019;48.132;-1.210;2022-07-06T04:18:34;5.07;;;2.90;;
17790;SDS011;9019;48.132;-1.210;2022-07-06T04:21:02;4.67;;;2.90;;
17790;SDS011;9019;48.132;-1.210;2022-07-06T04:23:29;3.27;;;2.90;;
17790;SDS011;9019;48.132;-1.210;2022-07-06T04:25:57;4.87;;;3.07;;
17790;SDS011;9019;48.132;-1.210;2022-07-06T04:28:24;5.77;;;3.63;;
17790;SDS011;9019;48.132;-1.210;2022-07-06T04:30:52;9.40;;;4.00;;
17790;SDS011;9019;48.132;-1.210;2022-07-06T04:33:20;4.80;;;3.50;;
17790;SDS011;9019;48.132;-1.210;2022-07-06T04:35:47;4.77;;;2.87;;
17790;SDS011;9019;48.132;-1.210;2022-07-06T04:38:14;3.97;;;2.30;;
17790;SDS011;9019;48.132;-1.210;2022-07-06T04:40:41;5.10;;;2.60;;
17790;SDS011;9019;48.132;-1.210;2022-07-06T04:43:11;4.03;;;2.80;;
17790;SDS011;9019;48.132;-1.210;2022-07-06T04:45:38;5.67;;;2.57;;
17790;SDS011;9019;48.132;-1.210;2022-07-06T04:48:07;4.23;;;3.63;;
17790;SDS011;9019;48.132;-1.210;2022-07-06T04:50:34;4.60;;;3.10;;
17790;SDS011;9019;48.132;-1.210;2022-07-06T04:53:01;6.70;;;3.43;;
17790;SDS011;9019;48.132;-1.210;2022-07-06T04:55:29;5.73;;;3.30;;
17790;SDS011;9019;48.132;-1.210;2022-07-06T04:57:56;4.90;;;3.10;;
17790;SDS011;9019;48.132;-1.210;2022-07-06T05:00:23;4.23;;;3.10;;
17790;SDS011;9019;48.132;-1.210;2022-07-06T05:02:50;6.13;;;3.07;;
17790;SDS011;9019;48.132;-1.210;2022-07-06T05:05:19;4.23;;;3.10;;
17790;SDS011;9019;48.132;-1.210;2022-07-06T05:07:46;4.00;;;2.70;;
17790;SDS011;9019;48.132;-1.210;2022-07-06T05:10:13;3.93;;;2.93;;
17790;SDS011;9019;48.132;-1.210;2022-07-06T05:12:40;3.73;;;2.90;;
17790;SDS011;9019;48.132;-1.210;2022-07-06T05:15:08;5.47;;;3.20;;
17790;SDS011;9019;48.132;-1.210;2022-07-06T05:17:35;4.97;;;3.23;;
17790;SDS011;9019;48.132;-1.210;2022-07-06T05:20:03;6.93;;;3.40;;
17790;SDS011;9019;48.132;-1.210;2022-07-06T05:22:32;5.47;;;3.50;;
17790;SDS011;9019;48.132;-1.210;2022-07-06T05:24:59;7.43;;;4.03;;
17790;SDS011;9019;48.132;-1.210;2022-07-06T05:27:26;6.80;;;3.80;;
17790;SDS011;9019;48.132;-1.210;2022-07-06T05:29:53;7.00;;;3.70;;
17790;SDS011;9019;48.132;-1.210;2022-07-06T05:32:20;6.33;;;3.87;;
17790;SDS011;9019;48.132;-1.210;2022-07-06T05:34:49;5.07;;;3.70;;
17790;SDS011;9019;48.132;-1.210;2022-07-06T05:37:16;5.13;;;3.60;;
17790;SDS011;9019;48.132;-1.210;2022-07-06T05:39:45;6.63;;;3.70;;
17790;SDS011;9019;48.132;-1.210;2022-07-06T05:42:14;5.93;;;3.60;;
17790;SDS011;9019;48.132;-1.210;2022-07-06T05:44:41;6.17;;;3.00;;
17790;SDS011;9019;48.132;-1.210;2022-07-06T05:47:09;4.37;;;3.00;;
17790;SDS011;9019;48.132;-1.210;2022-07-06T05:49:53;3.13;;;2.83;;
17790;SDS011;9019;48.132;-1.210;2022-07-06T05:52:39;3.23;;;2.57;;
17790;SDS011;9019;48.132;-1.210;2022-07-06T05:55:09;5.67;;;2.90;;
17790;SDS011;9019;48.132;-1.210;2022-07-06T05:57:36;6.37;;;3.20;;
17790;SDS011;9019;48.132;-1.210;2022-07-06T06:00:04;5.90;;;3.17;;
17790;SDS011;9019;48.132;-1.210;2022-07-06T06:02:38;4.00;;;2.70;;
17790;SDS011;9019;48.132;-1.210;2022-07-06T06:05:06;4.95;;;2.90;;
17790;SDS011;9019;48.132;-1.210;2022-07-06T06:07:34;3.45;;;2.45;;
17790;SDS011;9019;48.132;-1.210;2022-07-06T06:10:02;4.95;;;2.95;;
17790;SDS011;9019;48.132;-1.210;2022-07-06T06:12:31;3.72;;;2.60;;
17790;SDS011;9019;48.132;-1.210;2022-07-06T06:14:58;5.28;;;2.33;;
17790;SDS011;9019;48.132;-1.210;2022-07-06T06:17:26;3.97;;;2.78;;
17790;SDS011;9019;48.132;-1.210;2022-07-06T06:19:53;5.65;;;2.80;;
17790;SDS011;9019;48.132;-1.210;2022-07-06T06:22:20;4.70;;;2.45;;
17790;SDS011;9019;48.132;-1.210;2022-07-06T06:24:47;5.05;;;2.50;;
17790;SDS011;9019;48.132;-1.210;2022-07-06T06:27:14;3.25;;;2.20;;
17790;SDS011;9019;48.132;-1.210;2022-07-06T06:29:43;3.58;;;2.30;;
17790;SDS011;9019;48.132;-1.210;2022-07-06T06:32:11;6.25;;;2.20;;
17790;SDS011;9019;48.132;-1.210;2022-07-06T06:34:38;4.25;;;2.42;;
17790;SDS011;9019;48.132;-1.210;2022-07-06T06:37:05;4.30;;;2.35;;
17790;SDS011;9019;48.132;-1.210;2022-07-06T06:39:32;3.65;;;2.30;;
17790;SDS011;9019;48.132;-1.210;2022-07-06T06:42:00;4.85;;;2.38;;
17790;SDS011;9019;48.132;-1.210;2022-07-06T06:44:27;2.40;;;1.90;;
17790;SDS011;9019;48.132;-1.210;2022-07-06T06:46:55;4.90;;;1.77;;
17790;SDS011;9019;48.132;-1.210;2022-07-06T06:49:23;3.53;;;1.98;;
17790;SDS011;9019;48.132;-1.210;2022-07-06T06:51:50;4.40;;;2.00;;
17790;SDS011;9019;48.132;-1.210;2022-07-06T06:54:17;4.32;;;1.90;;
17790;SDS011;9019;48.132;-1.210;2022-07-06T06:56:44;3.20;;;2.00;;
17790;SDS011;9019;48.132;-1.210;2022-07-06T06:59:11;2.80;;;1.80;;
17790;SDS011;9019;48.132;-1.210;2022-07-06T07:01:38;3.15;;;1.85;;
17790;SDS011;9019;48.132;-1.210;2022-07-06T07:04:07;3.38;;;2.00;;
17790;SDS011;9019;48.132;-1.210;2022-07-06T07:06:34;4.10;;;1.90;;
17790;SDS011;9019;48.132;-1.210;2022-07-06T07:09:02;2.92;;;1.73;;
17790;SDS011;9019;48.132;-1.210;2022-07-06T07:11:30;2.63;;;1.85;;
17790;SDS011;9019;48.132;-1.210;2022-07-06T07:13:57;4.20;;;1.73;;
17790;SDS011;9019;48.132;-1.210;2022-07-06T07:16:25;4.43;;;1.80;;
17790;SDS011;9019;48.132;-1.210;2022-07-06T07:18:52;2.60;;;1.90;;
17790;SDS011;9019;48.132;-1.210;2022-07-06T07:21:21;4.65;;;1.67;;
17790;SDS011;9019;48.132;-1.210;2022-07-06T07:23:48;3.92;;;1.90;;
17790;SDS011;9019;48.132;-1.210;2022-07-06T07:26:15;4.40;;;1.92;;
17790;SDS011;9019;48.132;-1.210;2022-07-06T07:28:43;3.15;;;1.85;;
17790;SDS011;9019;48.132;-1.210;2022-07-06T07:31:10;3.20;;;1.80;;
17790;SDS011;9019;48.132;-1.210;2022-07-06T07:33:37;3.10;;;2.20;;
17790;SDS011;9019;48.132;-1.210;2022-07-06T07:36:05;2.53;;;1.88;;
17790;SDS011;9019;48.132;-1.210;2022-07-06T07:38:34;4.05;;;2.08;;
17790;SDS011;9019;48.132;-1.210;2022-07-06T07:41:01;4.00;;;2.05;;
17790;SDS011;9019;48.132;-1.210;2022-07-06T07:43:28;4.78;;;2.30;;
17790;SDS011;9019;48.132;-1.210;2022-07-06T07:45:56;3.45;;;2.10;;
17790;SDS011;9019;48.132;-1.210;2022-07-06T07:48:23;3.65;;;1.98;;
17790;SDS011;9019;48.132;-1.210;2022-07-06T07:50:51;4.32;;;2.03;;
17790;SDS011;9019;48.132;-1.210;2022-07-06T07:53:18;3.38;;;1.70;;
17790;SDS011;9019;48.132;-1.210;2022-07-06T07:55:46;2.65;;;1.67;;
17790;SDS011;9019;48.132;-1.210;2022-07-06T07:58:13;3.55;;;1.80;;
17790;SDS011;9019;48.132;-1.210;2022-07-06T08:00:41;3.17;;;1.77;;
17790;SDS011;9019;48.132;-1.210;2022-07-06T08:03:08;2.42;;;1.55;;
17790;SDS011;9019;48.132;-1.210;2022-07-06T08:05:35;3.88;;;1.60;;
17790;SDS011;9019;48.132;-1.210;2022-07-06T08:08:02;2.45;;;1.42;;
17790;SDS011;9019;48.132;-1.210;2022-07-06T08:10:30;3.42;;;1.60;;
17790;SDS011;9019;48.132;-1.210;2022-07-06T08:12:58;2.05;;;1.33;;
17790;SDS011;9019;48.132;-1.210;2022-07-06T08:15:26;3.15;;;1.70;;
17790;SDS011;9019;48.132;-1.210;2022-07-06T08:17:53;3.75;;;1.55;;
17790;SDS011;9019;48.132;-1.210;2022-07-06T08:20:20;2.60;;;1.52;;
17790;SDS011;9019;48.132;-1.210;2022-07-06T08:22:47;2.53;;;1.60;;
17790;SDS011;9019;48.132;-1.210;2022-07-06T08:25:15;3.65;;;1.60;;
17790;SDS011;9019;48.132;-1.210;2022-07-06T08:27:42;2.20;;;1.40;;
17790;SDS011;9019;48.132;-1.210;2022-07-06T08:30:11;2.67;;;1.60;;
17790;SDS011;9019;48.132;-1.210;2022-07-06T08:32:39;3.47;;;1.60;;
17790;SDS011;9019;48.132;-1.210;2022-07-06T08:35:07;2.40;;;1.33;;
17790;SDS011;9019;48.132;-1.210;2022-07-06T08:37:34;3.28;;;1.50;;
17790;SDS011;9019;48.132;-1.210;2022-07-06T08:40:01;1.77;;;1.27;;
17790;SDS011;9019;48.132;-1.210;2022-07-06T08:42:29;2.33;;;1.58;;
17790;SDS011;9019;48.132;-1.210;2022-07-06T08:44:58;3.88;;;1.60;;
17790;SDS011;9019;48.132;-1.210;2022-07-06T08:47:27;3.65;;;2.10;;
17790;SDS011;9019;48.132;-1.210;2022-07-06T08:49:55;3.83;;;2.17;;
17790;SDS011;9019;48.132;-1.210;2022-07-06T08:52:22;3.10;;;1.70;;
17790;SDS011;9019;48.132;-1.210;2022-07-06T08:54:49;4.05;;;1.77;;
17790;SDS011;9019;48.132;-1.210;2022-07-06T08:57:17;2.42;;;1.90;;
17790;SDS011;9019;48.132;-1.210;2022-07-06T08:59:44;3.78;;;2.42;;
17790;SDS011;9019;48.132;-1.210;2022-07-06T09:02:12;5.15;;;2.35;;
17790;SDS011;9019;48.132;-1.210;2022-07-06T09:04:42;3.58;;;2.40;;
17790;SDS011;9019;48.132;-1.210;2022-07-06T09:07:09;4.78;;;2.65;;
17790;SDS011;9019;48.132;-1.210;2022-07-06T09:09:37;5.07;;;2.92;;
17790;SDS011;9019;48.132;-1.210;2022-07-06T09:12:04;3.85;;;3.22;;
17790;SDS011;9019;48.132;-1.210;2022-07-06T09:14:35;3.22;;;2.70;;
17790;SDS011;9019;48.132;-1.210;2022-07-06T09:17:03;7.93;;;5.57;;
17790;SDS011;9019;48.132;-1.210;2022-07-06T09:19:30;7.45;;;4.78;;
17790;SDS011;9019;48.132;-1.210;2022-07-06T09:21:59;5.35;;;4.32;;
17790;SDS011;9019;48.132;-1.210;2022-07-06T09:24:26;5.25;;;4.22;;
17790;SDS011;9019;48.132;-1.210;2022-07-06T09:26:54;5.93;;;4.30;;
17790;SDS011;9019;48.132;-1.210;2022-07-06T09:29:26;4.90;;;3.53;;
17790;SDS011;9019;48.132;-1.210;2022-07-06T09:31:57;4.50;;;3.50;;
17790;SDS011;9019;48.132;-1.210;2022-07-06T09:34:24;4.60;;;3.72;;
17790;SDS011;9019;48.132;-1.210;2022-07-06T09:36:52;4.30;;;3.00;;
17790;SDS011;9019;48.132;-1.210;2022-07-06T09:39:24;5.50;;;2.60;;
17790;SDS011;9019;48.132;-1.210;2022-07-06T09:41:53;3.00;;;2.30;;
17790;SDS011;9019;48.132;-1.210;2022-07-06T09:44:21;3.40;;;2.33;;
17790;SDS011;9019;48.132;-1.210;2022-07-06T09:46:49;3.47;;;2.80;;
17790;SDS011;9019;48.132;-1.210;2022-07-06T09:49:17;4.95;;;2.40;;
17790;SDS011;9019;48.132;-1.210;2022-07-06T09:51:45;2.70;;;2.30;;
17790;SDS011;9019;48.132;-1.210;2022-07-06T09:54:12;2.85;;;2.13;;
17790;SDS011;9019;48.132;-1.210;2022-07-06T09:56:41;4.93;;;2.40;;
17790;SDS011;9019;48.132;-1.210;2022-07-06T09:59:09;2.33;;;2.10;;
17790;SDS011;9019;48.132;-1.210;2022-07-06T10:01:37;5.20;;;2.17;;
17790;SDS011;9019;48.132;-1.210;2022-07-06T10:04:04;5.07;;;2.65;;
17790;SDS011;9019;48.132;-1.210;2022-07-06T10:06:32;4.47;;;2.55;;
17790;SDS011;9019;48.132;-1.210;2022-07-06T10:08:59;3.47;;;2.85;;
17790;SDS011;9019;48.132;-1.210;2022-07-06T10:11:27;2.47;;;2.28;;
17790;SDS011;9019;48.132;-1.210;2022-07-06T10:13:57;2.80;;;2.40;;
17790;SDS011;9019;48.132;-1.210;2022-07-06T10:16:24;3.33;;;2.40;;
17790;SDS011;9019;48.132;-1.210;2022-07-06T10:18:52;3.65;;;2.10;;
17790;SDS011;9019;48.132;-1.210;2022-07-06T10:21:20;3.65;;;2.22;;
17790;SDS011;9019;48.132;-1.210;2022-07-06T10:23:48;2.83;;;1.90;;
17790;SDS011;9019;48.132;-1.210;2022-07-06T10:26:16;3.30;;;1.75;;
17790;SDS011;9019;48.132;-1.210;2022-07-06T10:28:44;3.13;;;2.13;;
17790;SDS011;9019;48.132;-1.210;2022-07-06T10:31:14;3.95;;;2.17;;
17790;SDS011;9019;48.132;-1.210;2022-07-06T10:33:43;2.25;;;1.90;;
17790;SDS011;9019;48.132;-1.210;2022-07-06T10:36:10;4.32;;;1.63;;
17790;SDS011;9019;48.132;-1.210;2022-07-06T10:38:38;2.83;;;1.70;;
17790;SDS011;9019;48.132;-1.210;2022-07-06T10:41:06;1.70;;;1.48;;
17790;SDS011;9019;48.132;-1.210;2022-07-06T10:43:35;3.13;;;1.40;;
17790;SDS011;9019;48.132;-1.210;2022-07-06T10:46:06;3.05;;;1.50;;
17790;SDS011;9019;48.132;-1.210;2022-07-06T10:48:35;1.70;;;1.33;;
17790;SDS011;9019;48.132;-1.210;2022-07-06T10:51:03;4.45;;;1.73;;
17790;SDS011;9019;48.132;-1.210;2022-07-06T10:53:31;2.10;;;1.55;;
17790;SDS011;9019;48.132;-1.210;2022-07-06T10:56:00;2.10;;;1.67;;
17790;SDS011;9019;48.132;-1.210;2022-07-06T10:58:34;2.67;;;1.52;;
17790;SDS011;9019;48.132;-1.210;2022-07-06T11:01:02;3.05;;;1.73;;
17790;SDS011;9019;48.132;-1.210;2022-07-06T11:03:39;2.58;;;1.42;;
17790;SDS011;9019;48.132;-1.210;2022-07-06T11:06:07;3.83;;;1.60;;
17790;SDS011;9019;48.132;-1.210;2022-07-06T11:08:48;2.50;;;1.30;;
17790;SDS011;9019;48.132;-1.210;2022-07-06T11:11:16;2.88;;;1.55;;
17790;SDS011;9019;48.132;-1.210;2022-07-06T11:13:48;1.88;;;1.20;;
17790;SDS011;9019;48.132;-1.210;2022-07-06T11:16:16;1.48;;;1.30;;
17790;SDS011;9019;48.132;-1.210;2022-07-06T11:18:47;2.17;;;1.42;;
17790;SDS011;9019;48.132;-1.210;2022-07-06T11:21:18;2.53;;;1.20;;
17790;SDS011;9019;48.132;-1.210;2022-07-06T11:23:46;2.15;;;1.10;;
17790;SDS011;9019;48.132;-1.210;2022-07-06T11:26:14;2.17;;;1.45;;
17790;SDS011;9019;48.132;-1.210;2022-07-06T11:28:41;3.75;;;1.33;;
17790;SDS011;9019;48.132;-1.210;2022-07-06T11:31:10;3.08;;;1.50;;
17790;SDS011;9019;48.132;-1.210;2022-07-06T11:33:37;2.38;;;1.42;;
17790;SDS011;9019;48.132;-1.210;2022-07-06T11:36:15;1.88;;;1.40;;
17790;SDS011;9019;48.132;-1.210;2022-07-06T11:38:42;1.92;;;1.25;;
17790;SDS011;9019;48.132;-1.210;2022-07-06T11:41:10;2.60;;;1.30;;
17790;SDS011;9019;48.132;-1.210;2022-07-06T11:43:38;2.28;;;1.27;;
17790;SDS011;9019;48.132;-1.210;2022-07-06T11:46:17;3.05;;;1.40;;
17790;SDS011;9019;48.132;-1.210;2022-07-06T11:48:45;3.58;;;1.55;;
17790;SDS011;9019;48.132;-1.210;2022-07-06T11:51:12;1.75;;;1.30;;
17790;SDS011;9019;48.132;-1.210;2022-07-06T11:53:43;2.67;;;1.55;;
17790;SDS011;9019;48.132;-1.210;2022-07-06T11:56:11;2.55;;;1.20;;
17790;SDS011;9019;48.132;-1.210;2022-07-06T11:58:38;1.95;;;1.30;;
17790;SDS011;9019;48.132;-1.210;2022-07-06T12:01:08;2.40;;;1.40;;
17790;SDS011;9019;48.132;-1.210;2022-07-06T12:03:36;2.38;;;1.60;;
17790;SDS011;9019;48.132;-1.210;2022-07-06T12:06:03;1.63;;;1.13;;
17790;SDS011;9019;48.132;-1.210;2022-07-06T12:08:31;1.60;;;1.40;;
17790;SDS011;9019;48.132;-1.210;2022-07-06T12:11:00;1.30;;;1.20;;
17790;SDS011;9019;48.132;-1.210;2022-07-06T12:13:27;2.35;;;1.20;;
17790;SDS011;9019;48.132;-1.210;2022-07-06T12:16:08;2.20;;;1.33;;
17790;SDS011;9019;48.132;-1.210;2022-07-06T12:18:36;1.45;;;1.20;;
17790;SDS011;9019;48.132;-1.210;2022-07-06T12:21:04;3.67;;;1.38;;
17790;SDS011;9019;48.132;-1.210;2022-07-06T12:23:37;2.20;;;1.10;;
17790;SDS011;9019;48.132;-1.210;2022-07-06T12:26:06;2.60;;;1.20;;
17790;SDS011;9019;48.132;-1.210;2022-07-06T12:28:34;1.58;;;1.23;;
17790;SDS011;9019;48.132;-1.210;2022-07-06T12:31:01;1.67;;;1.10;;
17790;SDS011;9019;48.132;-1.210;2022-07-06T12:33:29;1.73;;;1.10;;
17790;SDS011;9019;48.132;-1.210;2022-07-06T12:35:56;3.67;;;1.40;;
17790;SDS011;9019;48.132;-1.210;2022-07-06T12:38:24;3.00;;;1.30;;
17790;SDS011;9019;48.132;-1.210;2022-07-06T12:40:51;2.63;;;1.23;;
17790;SDS011;9019;48.132;-1.210;2022-07-06T12:48:51;4.45;;;1.30;;
17790;SDS011;9019;48.132;-1.210;2022-07-06T12:51:18;1.30;;;1.13;;
17790;SDS011;9019;48.132;-1.210;2022-07-06T12:53:46;2.08;;;1.20;;
17790;SDS011;9019;48.132;-1.210;2022-07-06T12:56:13;6.35;;;1.20;;
17790;SDS011;9019;48.132;-1.210;2022-07-06T12:58:53;1.85;;;1.10;;
17790;SDS011;9019;48.132;-1.210;2022-07-06T13:01:20;4.82;;;1.50;;
17790;SDS011;9019;48.132;-1.210;2022-07-06T13:03:48;2.95;;;1.10;;
17790;SDS011;9019;48.132;-1.210;2022-07-06T13:06:27;2.90;;;1.20;;
17790;SDS011;9019;48.132;-1.210;2022-07-06T13:08:55;2.28;;;0.90;;
17790;SDS011;9019;48.132;-1.210;2022-07-06T13:11:23;1.98;;;1.20;;
17790;SDS011;9019;48.132;-1.210;2022-07-06T13:13:50;2.30;;;1.27;;
17790;SDS011;9019;48.132;-1.210;2022-07-06T13:16:17;2.70;;;1.10;;
17790;SDS011;9019;48.132;-1.210;2022-07-06T13:18:44;1.55;;;1.05;;
17790;SDS011;9019;48.132;-1.210;2022-07-06T13:21:12;1.27;;;1.00;;
17790;SDS011;9019;48.132;-1.210;2022-07-06T13:23:40;4.47;;;1.20;;
17790;SDS011;9019;48.132;-1.210;2022-07-06T13:26:07;2.47;;;1.23;;
17790;SDS011;9019;48.132;-1.210;2022-07-06T13:28:35;1.08;;;0.90;;
17790;SDS011;9019;48.132;-1.210;2022-07-06T13:31:02;1.42;;;1.00;;
17790;SDS011;9019;48.132;-1.210;2022-07-06T13:33:29;2.10;;;1.00;;
17790;SDS011;9019;48.132;-1.210;2022-07-06T13:35:56;2.13;;;1.20;;
17790;SDS011;9019;48.132;-1.210;2022-07-06T13:38:24;2.60;;;1.25;;
17790;SDS011;9019;48.132;-1.210;2022-07-06T13:40:52;1.35;;;1.02;;
17790;SDS011;9019;48.132;-1.210;2022-07-06T13:43:20;2.05;;;1.25;;
17790;SDS011;9019;48.132;-1.210;2022-07-06T13:45:47;1.85;;;1.30;;
17790;SDS011;9019;48.132;-1.210;2022-07-06T13:48:14;2.55;;;1.20;;
17790;SDS011;9019;48.132;-1.210;2022-07-06T13:50:42;3.05;;;0.95;;
17790;SDS011;9019;48.132;-1.210;2022-07-06T13:53:09;2.38;;;1.30;;
17790;SDS011;9019;48.132;-1.210;2022-07-06T13:55:36;2.08;;;1.00;;
17790;SDS011;9019;48.132;-1.210;2022-07-06T13:58:05;1.25;;;1.00;;
17790;SDS011;9019;48.132;-1.210;2022-07-06T14:00:32;1.10;;;1.00;;
17790;SDS011;9019;48.132;-1.210;2022-07-06T14:02:59;1.92;;;1.20;;
17790;SDS011;9019;48.132;-1.210;2022-07-06T14:05:27;3.00;;;1.30;;
17790;SDS011;9019;48.132;-1.210;2022-07-06T14:07:55;3.40;;;1.30;;
17790;SDS011;9019;48.132;-1.210;2022-07-06T14:10:22;1.65;;;1.05;;
17790;SDS011;9019;48.132;-1.210;2022-07-06T14:12:50;2.03;;;1.45;;
17790;SDS011;9019;48.132;-1.210;2022-07-06T14:15:18;2.20;;;1.30;;
17790;SDS011;9019;48.132;-1.210;2022-07-06T14:17:46;3.33;;;1.20;;
17790;SDS011;9019;48.132;-1.210;2022-07-06T14:20:13;1.58;;;1.20;;
17790;SDS011;9019;48.132;-1.210;2022-07-06T14:22:40;1.52;;;1.20;;
17790;SDS011;9019;48.132;-1.210;2022-07-06T14:25:08;1.88;;;1.20;;
17790;SDS011;9019;48.132;-1.210;2022-07-06T14:27:35;2.78;;;1.30;;
17790;SDS011;9019;48.132;-1.210;2022-07-06T14:30:03;2.03;;;1.20;;
17790;SDS011;9019;48.132;-1.210;2022-07-06T14:32:32;1.92;;;1.10;;
17790;SDS011;9019;48.132;-1.210;2022-07-06T14:34:59;1.52;;;1.30;;
17790;SDS011;9019;48.132;-1.210;2022-07-06T14:37:26;1.77;;;1.33;;
17790;SDS011;9019;48.132;-1.210;2022-07-06T14:39:53;5.40;;;1.30;;
17790;SDS011;9019;48.132;-1.210;2022-07-06T14:42:21;2.35;;;1.33;;
17790;SDS011;9019;48.132;-1.210;2022-07-06T14:44:48;1.48;;;1.20;;
17790;SDS011;9019;48.132;-1.210;2022-07-06T14:47:16;2.65;;;1.27;;
17790;SDS011;9019;48.132;-1.210;2022-07-06T14:49:44;1.80;;;1.00;;
17790;SDS011;9019;48.132;-1.210;2022-07-06T14:52:12;1.30;;;1.00;;
17790;SDS011;9019;48.132;-1.210;2022-07-06T14:54:39;2.10;;;1.20;;
17790;SDS011;9019;48.132;-1.210;2022-07-06T14:57:06;3.80;;;1.23;;
17790;SDS011;9019;48.132;-1.210;2022-07-06T14:59:34;2.92;;;1.45;;